createdAt,value
2023-01-03T00:02:27.804Z,101295.97
2023-01-03T00:05:16.442Z,101305.00
2023-01-03T00:08:06.566Z,101309.84
2023-01-03T00:10:55.152Z,101305.00
2023-01-03T00:13:43.181Z,101314.50
2023-01-03T00:16:31.739Z,101320.00
2023-01-03T00:19:21.083Z,101314.50
2023-01-03T00:22:10.303Z,101320.19
2023-01-03T00:25:00.161Z,101325.88
2023-01-03T00:27:48.656Z,101332.91
2023-01-03T00:30:37.106Z,101330.06
2023-01-03T00:33:25.603Z,101331.41
2023-01-03T00:36:14.114Z,101331.56
2023-01-03T00:39:02.717Z,101325.38
2023-01-03T00:41:52.853Z,101330.56
2023-01-03T00:44:41.375Z,101318.50
2023-01-03T00:47:29.929Z,101329.72
2023-01-03T00:50:18.462Z,101324.06
2023-01-03T00:53:06.971Z,101308.81
2023-01-03T00:55:55.836Z,101320.88
2023-01-03T00:58:45.940Z,101323.22
2023-01-03T01:01:45.940Z,101312.84
2023-01-03T01:04:35.493Z,101325.75
2023-01-03T01:07:23.890Z,101323.06
2023-01-03T01:10:12.420Z,101317.72
2023-01-03T01:13:00.846Z,101318.41
2023-01-03T01:15:50.749Z,101317.91
2023-01-03T01:18:40.061Z,101317.56
2023-01-03T01:21:29.888Z,101320.06
2023-01-03T01:24:18.590Z,101234.19
2023-01-03T01:27:07.187Z,101341.34
2023-01-03T01:29:55.597Z,101315.53
2023-01-03T01:32:45.415Z,101340.78
2023-01-03T01:35:33.864Z,101346.66
2023-01-03T01:38:22.292Z,101347.81
2023-01-03T01:41:13.145Z,101355.69
2023-01-03T01:44:18.996Z,101361.53
2023-01-03T01:47:08.891Z,101370.19
2023-01-03T01:50:05.200Z,101334.19
2023-01-03T01:52:57.140Z,101357.47
2023-01-03T01:55:48.234Z,101360.50
2023-01-03T01:58:38.405Z,101365.84
2023-01-03T02:01:27.240Z,101361.47
2023-01-03T02:04:19.167Z,101349.59
2023-01-03T02:07:09.091Z,101342.94
2023-01-03T02:09:58.551Z,101315.69
2023-01-03T02:13:07.052Z,101336.06
2023-01-03T02:16:08.084Z,101318.69
2023-01-03T02:19:05.378Z,101342.75
2023-01-03T02:22:39.266Z,101344.78
2023-01-03T02:26:05.972Z,101355.81
2023-01-03T02:29:20.969Z,101349.41
2023-01-03T02:32:13.762Z,101347.06
2023-01-03T02:35:07.095Z,101349.41
2023-01-03T02:37:58.699Z,101349.88
2023-01-03T02:40:50.882Z,101344.84
2023-01-03T02:43:46.461Z,101342.97
2023-01-03T02:46:39.078Z,101343.63
2023-01-03T02:49:33.502Z,101346.44
2023-01-03T02:52:25.324Z,101339.38
2023-01-03T02:55:17.293Z,101346.16
2023-01-03T02:58:08.846Z,101341.13
2023-01-03T03:00:59.885Z,101349.78
2023-01-03T03:03:49.272Z,101358.59
2023-01-03T03:06:42.916Z,101365.56
2023-01-03T03:09:31.461Z,101356.75
2023-01-03T03:12:37.411Z,101357.22
2023-01-03T03:15:31.586Z,101353.50
2023-01-03T03:18:23.362Z,101363.88
2023-01-03T03:21:30.878Z,101365.34
2023-01-03T03:24:40.729Z,101288.81
2023-01-03T03:27:48.792Z,101366.34
2023-01-03T03:30:39.644Z,101352.25
2023-01-03T03:33:29.644Z,101351.41
2023-01-03T03:36:20.775Z,101355.97
2023-01-03T03:39:31.070Z,101357.72
2023-01-03T03:42:42.212Z,101356.97
2023-01-03T03:45:38.429Z,101356.06
2023-01-03T03:48:30.769Z,101362.22
2023-01-03T03:51:21.288Z,101350.44
2023-01-03T03:54:13.239Z,101367.50
2023-01-03T03:57:07.036Z,101335.09
2023-01-03T03:59:59.596Z,101359.25
2023-01-03T04:02:48.582Z,101367.41
2023-01-03T04:05:40.974Z,101367.25
2023-01-03T04:08:29.425Z,101373.28
2023-01-03T04:11:18.024Z,101369.47
2023-01-03T04:14:06.452Z,101368.81
2023-01-03T04:16:56.515Z,101363.47
2023-01-03T04:19:45.000Z,101366.28
2023-01-03T04:22:33.510Z,101380.28
2023-01-03T04:25:22.016Z,101377.41
2023-01-03T04:28:10.502Z,101380.13
2023-01-03T04:30:58.971Z,101374.88
2023-01-03T04:33:48.783Z,101374.59
2023-01-03T04:36:37.229Z,101386.53
2023-01-03T04:39:25.835Z,101384.38
2023-01-03T04:42:31.568Z,101379.41
2023-01-03T04:45:20.047Z,101374.38
2023-01-03T04:48:08.587Z,101386.28
2023-01-03T04:51:00.502Z,101370.72
2023-01-03T04:53:48.989Z,101385.09
2023-01-03T04:56:38.636Z,101390.53
2023-01-03T04:59:27.146Z,101387.44
2023-01-03T05:02:15.782Z,101388.97
2023-01-03T05:05:04.798Z,101226.50
2023-01-03T05:07:54.675Z,101393.78
2023-01-03T05:10:43.145Z,101400.38
2023-01-03T05:13:31.686Z,101394.09
2023-01-03T05:16:20.365Z,101403.50
2023-01-03T05:19:08.842Z,101390.84
2023-01-03T05:22:14.824Z,101396.75
2023-01-03T05:25:24.447Z,101406.56
2023-01-03T05:28:17.310Z,101406.84
2023-01-03T05:31:06.395Z,101407.13
2023-01-03T05:33:54.891Z,101420.06
2023-01-03T05:36:43.390Z,101414.06
2023-01-03T05:39:31.886Z,101414.22
2023-01-03T05:42:21.671Z,101420.69
2023-01-03T05:45:11.100Z,101417.63
2023-01-03T05:47:59.732Z,101414.97
2023-01-03T05:50:49.745Z,101414.69
2023-01-03T05:53:38.213Z,101421.53
2023-01-03T05:56:26.714Z,101430.94
2023-01-03T05:59:16.584Z,101432.47
2023-01-03T06:02:05.097Z,101420.72
2023-01-03T06:04:53.733Z,101425.75
2023-01-03T06:07:42.210Z,101433.03
2023-01-03T06:10:30.685Z,101419.91
2023-01-03T06:13:21.287Z,101409.44
2023-01-03T06:16:30.394Z,101433.38
2023-01-03T06:19:18.813Z,101424.81
2023-01-03T06:22:10.891Z,101408.16
2023-01-03T06:24:59.806Z,101422.47
2023-01-03T06:27:48.238Z,101427.81
2023-01-03T06:30:36.677Z,101437.31
2023-01-03T06:33:26.481Z,101434.78
2023-01-03T06:36:16.101Z,101404.69
2023-01-03T06:39:04.804Z,101401.03
2023-01-03T06:41:53.271Z,101433.09
2023-01-03T06:44:41.771Z,101435.75
2023-01-03T06:47:47.547Z,101435.34
2023-01-03T06:50:57.505Z,101430.31
2023-01-03T06:53:46.002Z,101440.09
2023-01-03T06:56:34.516Z,101437.56
2023-01-03T06:59:23.309Z,101433.69
2023-01-03T07:02:11.890Z,101441.09
2023-01-03T07:05:00.433Z,101440.38
2023-01-03T07:07:50.305Z,101430.00
2023-01-03T07:10:38.767Z,101439.00
2023-01-03T07:13:41.142Z,101440.41
2023-01-03T07:16:31.555Z,101451.72
2023-01-03T07:19:20.887Z,101451.44
2023-01-03T07:22:09.400Z,101449.06
2023-01-03T07:24:59.180Z,101443.91
2023-01-03T07:28:00.348Z,101452.56
2023-01-03T07:30:52.173Z,101455.50
2023-01-03T07:33:40.655Z,101468.41
2023-01-03T07:36:29.121Z,101469.78
2023-01-03T07:39:17.644Z,101469.25
2023-01-03T07:42:33.444Z,101478.06
2023-01-03T07:45:21.867Z,101479.88
2023-01-03T07:48:10.947Z,101485.38
2023-01-03T07:50:59.798Z,101485.06
2023-01-03T07:53:50.863Z,101476.53
2023-01-03T07:56:39.453Z,101476.81
2023-01-03T07:59:29.318Z,101492.25
2023-01-03T08:02:19.317Z,101483.66
2023-01-03T08:05:08.500Z,101486.03
2023-01-03T08:07:56.973Z,101489.28
2023-01-03T08:11:02.741Z,101503.56
2023-01-03T08:13:51.472Z,101502.72
2023-01-03T08:16:41.375Z,101502.66
2023-01-03T08:19:30.141Z,101504.72
2023-01-03T08:22:18.595Z,101504.56
2023-01-03T08:25:07.417Z,101512.97
2023-01-03T08:27:58.735Z,101510.84
2023-01-03T08:30:48.867Z,101525.69
2023-01-03T08:33:42.905Z,101520.22
2023-01-03T08:36:34.843Z,101526.53
2023-01-03T08:39:26.127Z,101532.03
2023-01-03T08:42:16.682Z,101527.69
2023-01-03T08:45:08.193Z,101530.38
2023-01-03T08:47:58.467Z,101527.44
2023-01-03T08:50:48.545Z,101534.28
2023-01-03T08:53:37.065Z,101503.59
2023-01-03T08:56:25.549Z,101548.56
2023-01-03T08:59:14.039Z,101549.72
2023-01-03T09:02:03.162Z,101547.47
2023-01-03T09:04:51.785Z,101548.88
2023-01-03T09:07:41.657Z,101553.09
2023-01-03T09:10:30.341Z,101560.25
2023-01-03T09:13:18.897Z,101557.84
2023-01-03T09:16:09.404Z,101561.50
2023-01-03T09:18:58.178Z,101560.63
2023-01-03T09:21:46.637Z,101562.06
2023-01-03T09:24:36.495Z,101554.75
2023-01-03T09:27:24.905Z,101562.75
2023-01-03T09:30:14.616Z,101570.88
2023-01-03T09:33:03.159Z,101569.34
2023-01-03T09:35:54.099Z,101547.44
2023-01-03T09:38:42.667Z,101576.25
2023-01-03T09:41:33.676Z,101577.63
2023-01-03T09:44:22.165Z,101579.81
2023-01-03T09:47:18.069Z,101544.41
2023-01-03T09:53:37.837Z,101582.16
2023-01-03T09:56:44.167Z,101578.47
2023-01-03T09:59:55.125Z,101577.34
2023-01-03T10:03:09.864Z,101573.69
2023-01-03T10:06:12.867Z,101449.69
2023-01-03T10:09:15.595Z,101576.47
2023-01-03T10:12:16.165Z,101566.31
2023-01-03T10:15:15.878Z,101566.88
2023-01-03T10:18:15.107Z,101567.59
2023-01-03T10:21:07.731Z,101561.25
2023-01-03T10:23:56.271Z,101561.66
2023-01-03T10:26:44.735Z,101567.31
2023-01-03T10:29:33.188Z,101561.13
2023-01-03T10:32:38.485Z,101563.66
2023-01-03T10:35:30.297Z,101565.56
2023-01-03T10:38:19.009Z,101566.56
2023-01-03T10:41:16.818Z,101517.81
2023-01-03T10:44:05.815Z,101559.56
2023-01-03T10:46:55.805Z,101552.34
2023-01-03T10:49:48.156Z,101549.84
2023-01-03T10:52:39.208Z,101547.69
2023-01-03T10:55:28.465Z,101520.34
2023-01-03T10:58:22.010Z,101550.56
2023-01-03T11:01:12.828Z,101539.00
2023-01-03T11:04:09.970Z,101556.22
2023-01-03T11:07:15.879Z,101548.47
2023-01-03T11:10:04.620Z,101545.06
2023-01-03T11:12:53.181Z,101541.66
2023-01-03T11:15:41.638Z,101531.31
2023-01-03T11:18:31.615Z,101542.22
2023-01-03T11:21:25.645Z,101511.75
2023-01-03T11:24:25.122Z,101536.66
2023-01-03T11:27:21.429Z,101543.63
2023-01-03T11:30:18.508Z,101540.34
2023-01-03T11:33:24.060Z,101544.53
2023-01-03T11:36:31.890Z,101546.88
2023-01-03T11:39:43.890Z,101540.13
2023-01-03T11:42:40.358Z,101506.91
2023-01-03T11:45:46.500Z,101526.66
2023-01-03T11:49:00.333Z,101525.44
2023-01-03T11:51:57.882Z,101532.31
2023-01-03T11:55:09.171Z,101508.72
2023-01-03T11:58:07.337Z,101527.25
2023-01-03T12:01:00.583Z,101504.66
2023-01-03T12:04:03.752Z,101516.00
2023-01-03T12:07:45.227Z,101516.25
2023-01-03T12:10:17.561Z,101503.53
2023-01-03T12:13:21.452Z,101510.16
2023-01-03T12:16:15.518Z,101510.81
2023-01-03T12:19:12.494Z,101491.34
2023-01-03T12:22:05.161Z,101502.88
2023-01-03T12:25:04.796Z,101511.75
2023-01-03T12:27:58.290Z,101501.69
2023-01-03T12:30:49.505Z,101486.88
2023-01-03T12:33:42.807Z,101510.81
2023-01-03T12:36:37.693Z,101505.75
2023-01-03T12:39:34.556Z,101498.63
2023-01-03T12:42:33.259Z,101488.75
2023-01-03T12:45:34.849Z,101358.66
2023-01-03T12:48:34.611Z,101458.50
2023-01-03T12:51:24.630Z,101495.28
2023-01-03T12:54:21.626Z,101491.69
2023-01-03T12:57:42.227Z,101482.72
2023-01-03T13:00:47.829Z,101484.56
2023-01-03T13:03:40.128Z,101488.91
2023-01-03T13:06:31.584Z,101478.31
2023-01-03T13:09:24.080Z,101484.38
2023-01-03T13:12:15.773Z,101442.66
2023-01-03T13:15:14.990Z,101479.41
2023-01-03T13:18:36.732Z,101478.38
2023-01-03T13:22:02.399Z,101476.22
2023-01-03T13:24:52.306Z,101464.41
2023-01-03T13:27:49.426Z,101458.38
2023-01-03T13:30:38.473Z,101462.03
2023-01-03T13:33:26.992Z,101457.34
2023-01-03T13:36:16.837Z,101451.97
2023-01-03T13:39:33.546Z,101429.63
2023-01-03T13:42:23.764Z,101466.97
2023-01-03T13:45:54.876Z,101460.59
2023-01-03T13:48:54.391Z,101434.28
2023-01-03T13:51:53.981Z,101465.47
2023-01-03T13:55:06.872Z,101461.56
2023-01-03T13:57:55.365Z,101454.16
2023-01-03T14:00:44.398Z,101461.56
2023-01-03T14:03:48.849Z,101466.63
2023-01-03T14:06:53.050Z,101468.31
2023-01-03T14:10:14.814Z,101438.88
2023-01-03T14:13:31.029Z,101466.84
2023-01-03T14:16:27.587Z,101472.72
2023-01-03T14:19:21.024Z,101456.13
2023-01-03T14:22:30.348Z,101459.34
2023-01-03T14:25:34.044Z,101472.84
2023-01-03T14:28:24.391Z,101465.28
2023-01-03T14:31:18.832Z,101457.25
2023-01-03T14:34:11.446Z,101461.78
2023-01-03T14:37:04.345Z,101466.84
2023-01-03T14:39:55.282Z,101464.88
2023-01-03T14:42:46.246Z,101455.34
2023-01-03T14:45:34.776Z,101466.16
2023-01-03T14:48:24.212Z,101445.91
2023-01-03T14:51:12.715Z,101469.00
2023-01-03T14:54:01.640Z,101472.91
2023-01-03T14:56:51.505Z,101468.59
2023-01-03T14:59:40.063Z,101468.31
2023-01-03T15:02:29.661Z,101473.34
2023-01-03T15:05:30.319Z,101471.84
2023-01-03T15:08:23.262Z,101466.88
2023-01-03T15:11:13.379Z,101470.88
2023-01-03T15:14:04.702Z,101468.72
2023-01-03T15:16:53.642Z,101470.09
2023-01-03T15:19:48.696Z,101473.59
2023-01-03T15:22:41.290Z,101477.28
2023-01-03T15:25:35.603Z,101483.34
2023-01-03T15:28:27.230Z,101454.69
2023-01-03T15:31:30.047Z,101486.72
2023-01-03T15:34:21.822Z,101482.19
2023-01-03T15:37:14.655Z,101480.47
2023-01-03T15:40:06.187Z,101354.19
2023-01-03T15:43:12.316Z,101486.31
2023-01-03T15:46:03.838Z,101374.56
2023-01-03T15:48:56.927Z,101492.31
2023-01-03T15:51:46.197Z,101496.16
2023-01-03T15:54:34.736Z,101507.00
2023-01-03T15:57:25.019Z,101494.03
2023-01-03T16:00:17.959Z,101504.31
2023-01-03T16:03:06.599Z,101501.78
2023-01-03T16:05:56.605Z,101498.88
2023-01-03T16:08:45.397Z,101492.16
2023-01-03T16:11:34.756Z,101484.00
2023-01-03T16:14:25.163Z,101500.00
2023-01-03T16:17:24.113Z,101496.38
2023-01-03T16:20:15.810Z,101483.31
2023-01-03T16:23:05.693Z,101498.38
2023-01-03T16:25:57.315Z,101497.28
2023-01-03T16:28:45.844Z,101497.41
2023-01-03T16:31:34.747Z,101504.97
2023-01-03T16:34:28.798Z,101511.56
2023-01-03T16:37:20.954Z,101516.25
2023-01-03T16:40:15.113Z,101519.97
2023-01-03T16:43:05.084Z,101512.56
2023-01-03T16:45:54.525Z,101528.50
2023-01-03T16:48:47.833Z,101527.69
2023-01-03T16:51:39.496Z,101536.78
2023-01-03T16:54:31.288Z,101532.25
2023-01-03T16:57:22.479Z,101525.97
2023-01-03T17:00:17.882Z,101540.84
2023-01-03T17:03:06.528Z,101536.81
2023-01-03T17:05:55.252Z,101534.44
2023-01-03T17:08:44.028Z,101529.50
2023-01-03T17:11:33.509Z,101533.16
2023-01-03T17:14:23.826Z,101532.06
2023-01-03T17:17:17.028Z,101532.66
2023-01-03T17:20:15.046Z,101527.75
2023-01-03T17:23:03.859Z,101521.31
2023-01-03T17:25:52.591Z,101483.84
2023-01-03T17:28:41.331Z,101520.31
2023-01-03T17:31:32.897Z,101514.88
2023-01-03T17:34:25.306Z,101524.84
2023-01-03T17:37:16.742Z,101521.22
2023-01-03T17:40:07.328Z,101526.41
2023-01-03T17:42:58.380Z,101532.03
2023-01-03T17:46:05.828Z,101533.97
2023-01-03T17:49:13.386Z,101532.31
2023-01-03T17:52:05.520Z,101524.47
2023-01-03T17:54:55.173Z,101529.81
2023-01-03T17:57:43.868Z,101512.16
2023-01-03T18:00:39.455Z,101533.72
2023-01-03T18:03:28.096Z,101543.00
2023-01-03T18:06:22.004Z,101542.00
2023-01-03T18:09:15.082Z,101542.72
2023-01-03T18:12:03.618Z,101547.63
2023-01-03T18:14:52.133Z,101548.84
2023-01-03T18:17:40.658Z,101549.66
2023-01-03T18:20:29.210Z,101552.47
2023-01-03T18:23:21.564Z,101552.47
2023-01-03T18:26:13.853Z,101580.09
2023-01-03T18:29:02.418Z,101570.28
2023-01-03T18:31:51.866Z,101563.25
2023-01-03T18:34:40.496Z,101562.56
2023-01-03T18:37:32.327Z,101569.31
2023-01-03T18:40:26.321Z,101461.31
2023-01-03T18:43:15.324Z,101568.31
2023-01-03T18:46:04.935Z,101562.13
2023-01-03T18:48:53.786Z,101577.44
2023-01-03T18:51:42.385Z,101581.03
2023-01-03T18:54:30.963Z,101579.94
2023-01-03T18:57:20.944Z,101565.41
2023-01-03T19:00:16.368Z,101576.84
2023-01-03T19:03:15.846Z,101577.38
2023-01-03T19:06:14.018Z,101568.41
2023-01-03T19:09:05.225Z,101568.53
2023-01-03T19:11:54.842Z,101577.06
2023-01-03T19:14:49.823Z,101581.38
2023-01-03T19:17:38.340Z,101576.06
2023-01-03T19:20:27.484Z,101577.06
2023-01-03T19:23:20.449Z,101565.63
2023-01-03T19:26:25.175Z,101572.75
2023-01-03T19:29:21.949Z,101571.78
2023-01-03T19:32:17.240Z,101561.28
2023-01-03T19:35:14.572Z,101569.53
2023-01-03T19:38:03.050Z,101576.81
2023-01-03T19:40:51.573Z,101570.22
2023-01-03T19:43:40.343Z,101562.50
2023-01-03T19:46:29.095Z,101549.28
2023-01-03T19:49:19.551Z,101571.94
2023-01-03T19:52:08.016Z,101585.50
2023-01-03T19:54:56.473Z,101566.88
2023-01-03T19:57:48.028Z,101564.44
2023-01-03T20:00:37.096Z,101570.84
2023-01-03T20:03:29.961Z,101559.38
2023-01-03T20:06:19.977Z,101562.31
2023-01-03T20:09:08.465Z,101550.09
2023-01-03T20:11:56.997Z,101556.94
2023-01-03T20:14:48.605Z,101558.22
2023-01-03T20:17:37.330Z,101554.59
2023-01-03T20:20:29.561Z,101511.25
2023-01-03T20:23:19.632Z,101543.75
2023-01-03T20:26:10.325Z,101552.69
2023-01-03T20:28:59.919Z,101541.88
2023-01-03T20:31:48.906Z,101547.81
2023-01-03T20:34:37.774Z,101541.47
2023-01-03T20:37:26.336Z,101537.28
2023-01-03T20:40:18.007Z,101495.09
2023-01-03T20:43:06.570Z,101535.59
2023-01-03T20:45:57.128Z,101534.91
2023-01-03T20:48:48.497Z,101550.19
2023-01-03T20:51:36.991Z,101534.63
2023-01-03T20:54:25.453Z,101539.94
2023-01-03T20:57:20.652Z,101530.44
2023-01-03T21:00:20.420Z,101516.56
2023-01-03T21:03:09.164Z,101519.66
2023-01-03T21:05:59.051Z,101525.38
2023-01-03T21:08:57.769Z,101522.44
2023-01-03T21:11:47.051Z,101517.81
2023-01-03T21:14:37.044Z,101506.31
2023-01-03T21:17:25.569Z,101498.75
2023-01-03T21:20:16.196Z,101504.19
2023-01-03T21:23:04.710Z,101505.63
2023-01-03T21:25:56.067Z,101443.53
2023-01-03T21:28:44.566Z,101504.88
2023-01-03T21:31:35.191Z,101506.41
2023-01-03T21:34:23.771Z,101504.47
2023-01-03T21:37:12.276Z,101501.94
2023-01-03T21:40:00.804Z,101500.94
2023-01-03T21:43:05.063Z,101498.84
2023-01-03T21:45:56.258Z,101499.41
2023-01-03T21:48:46.570Z,101497.88
2023-01-03T21:51:38.858Z,101494.38
2023-01-03T21:54:27.817Z,101491.25
2023-01-03T21:57:22.735Z,101497.56
2023-01-03T22:00:12.939Z,101496.44
2023-01-03T22:03:21.599Z,101493.63
2023-01-03T22:06:13.554Z,101498.56
2023-01-03T22:09:04.417Z,101491.97
2023-01-03T22:11:53.587Z,101474.31
2023-01-03T22:14:42.121Z,101488.19
2023-01-03T22:17:30.574Z,101477.97
2023-01-03T22:20:21.021Z,101490.44
2023-01-03T22:23:12.096Z,101486.13
2023-01-03T22:26:02.615Z,101486.25
2023-01-03T22:28:51.120Z,101485.59
2023-01-03T22:31:42.158Z,101459.66
2023-01-03T22:34:30.720Z,101434.09
2023-01-03T22:37:19.696Z,101327.50
2023-01-03T22:40:12.912Z,101426.41
2023-01-03T22:43:01.432Z,101435.06
2023-01-03T22:45:49.921Z,101461.81
2023-01-03T22:48:38.836Z,101462.78
2023-01-03T22:51:27.333Z,101467.38
2023-01-03T22:54:15.763Z,101471.16
2023-01-03T22:57:05.791Z,101466.63
2023-01-03T22:59:54.364Z,101469.97
2023-01-03T23:02:42.918Z,101475.84
2023-01-03T23:05:31.464Z,101456.47
2023-01-03T23:08:20.002Z,101476.53
2023-01-03T23:11:33.434Z,101477.91
2023-01-03T23:14:26.647Z,101472.44
2023-01-03T23:17:32.802Z,101478.16
2023-01-03T23:20:21.319Z,101477.22
2023-01-03T23:23:10.752Z,101470.44
2023-01-03T23:26:01.778Z,101465.06
2023-01-03T23:28:50.280Z,101451.13
2023-01-03T23:31:40.163Z,101449.09
2023-01-03T23:34:28.658Z,101440.16
2023-01-03T23:37:17.136Z,101428.97
2023-01-03T23:40:06.866Z,101431.44
2023-01-03T23:42:55.376Z,101424.34
2023-01-03T23:45:43.854Z,101423.16
2023-01-03T23:48:33.879Z,101399.03
2023-01-03T23:51:22.386Z,101405.44
2023-01-03T23:54:11.147Z,101421.28
2023-01-03T23:57:00.128Z,101414.59
2023-01-03T23:59:48.583Z,101406.56
